TAF and METAR

Could not understand the following METAR

UKOO 311300Z 20008MPS 9999 FEW///CB 19/12 Q1007 R16/090060 NOSIG

TAF for Odessa International Airport

TAF UKOO 311110Z 3112/0112 20007G14MPS 6000 BKN007 SCT015CB PROB40 TEMPO 3112/3118 VRB10G18MPS 1000 TSRAGR SQ BKN003 BKN013CB BECMG 3118/3119 27003MPS 2100 -SHRA BR BECMG 0106/0107 27006G13MPS
Report created 31. mai 13:10

between 31. mai 14:00 - 1. mai 14:00

wind 14 knots from SSW (200°) with gusts up to 28 knots visibility 6000 meters broken clouds (~75% cover) at 700 feet scattered clouds (~50% cover) at 1500 feet of type cumulonimbus

probably (~40%) temporarily between 31. mai 14:00 - 31. mai 20:00

wind 20 knots from various directions with gusts up to 36 knots visibility 1000 meters thunderstorm and rain and hail
Odessa International Airport in Ukraine at 35m

Latest 5 airports